sensor_id;sensor_type;location;lat;lon;timestamp;temperature;humidity
7254;DHT22;4060;49.186;9.226;2022-12-07T00:00:17;9.10;69.20
7254;DHT22;4060;49.186;9.226;2022-12-07T00:02:48;9.00;69.20
7254;DHT22;4060;49.186;9.226;2022-12-07T00:05:18;9.00;69.10
7254;DHT22;4060;49.186;9.226;2022-12-07T00:07:49;9.00;69.20
7254;DHT22;4060;49.186;9.226;2022-12-07T00:10:18;9.00;69.20
7254;DHT22;4060;49.186;9.226;2022-12-07T00:12:48;9.00;69.20
7254;DHT22;4060;49.186;9.226;2022-12-07T00:15:19;9.00;69.20
7254;DHT22;4060;49.186;9.226;2022-12-07T00:17:50;9.00;69.10
7254;DHT22;4060;49.186;9.226;2022-12-07T00:20:19;9.00;69.20
7254;DHT22;4060;49.186;9.226;2022-12-07T00:22:49;9.00;69.20
7254;DHT22;4060;49.186;9.226;2022-12-07T00:25:18;9.00;69.20
7254;DHT22;4060;49.186;9.226;2022-12-07T00:27:47;9.00;69.20
7254;DHT22;4060;49.186;9.226;2022-12-07T00:30:17;9.00;69.20
7254;DHT22;4060;49.186;9.226;2022-12-07T00:32:46;9.00;69.30
7254;DHT22;4060;49.186;9.226;2022-12-07T00:35:18;9.00;69.20
7254;DHT22;4060;49.186;9.226;2022-12-07T00:37:47;9.00;69.30
7254;DHT22;4060;49.186;9.226;2022-12-07T00:40:17;9.00;69.30
7254;DHT22;4060;49.186;9.226;2022-12-07T00:42:47;9.00;69.30
7254;DHT22;4060;49.186;9.226;2022-12-07T00:45:16;9.00;69.20
7254;DHT22;4060;49.186;9.226;2022-12-07T00:47:45;9.00;69.30
7254;DHT22;4060;49.186;9.226;2022-12-07T00:50:17;8.90;69.10
7254;DHT22;4060;49.186;9.226;2022-12-07T00:52:46;8.90;69.10
7254;DHT22;4060;49.186;9.226;2022-12-07T00:55:16;8.90;69.20
7254;DHT22;4060;49.186;9.226;2022-12-07T00:57:46;8.90;69.10
7254;DHT22;4060;49.186;9.226;2022-12-07T01:00:16;8.90;69.10
7254;DHT22;4060;49.186;9.226;2022-12-07T01:02:45;8.90;69.10
7254;DHT22;4060;49.186;9.226;2022-12-07T01:05:18;8.90;69.10
7254;DHT22;4060;49.186;9.226;2022-12-07T01:07:47;8.90;69.20
7254;DHT22;4060;49.186;9.226;2022-12-07T01:10:18;8.90;69.90
7254;DHT22;4060;49.186;9.226;2022-12-07T01:12:49;8.90;69.30
7254;DHT22;4060;49.186;9.226;2022-12-07T01:15:19;8.90;69.20
7254;DHT22;4060;49.186;9.226;2022-12-07T01:17:48;8.90;69.20
7254;DHT22;4060;49.186;9.226;2022-12-07T01:20:22;8.80;69.10
7254;DHT22;4060;49.186;9.226;2022-12-07T01:22:51;8.90;69.30
7254;DHT22;4060;49.186;9.226;2022-12-07T01:25:21;8.80;69.10
7254;DHT22;4060;49.186;9.226;2022-12-07T01:27:51;8.90;69.20
7254;DHT22;4060;49.186;9.226;2022-12-07T01:30:20;8.80;69.20
7254;DHT22;4060;49.186;9.226;2022-12-07T01:32:50;8.90;69.30
7254;DHT22;4060;49.186;9.226;2022-12-07T01:35:21;8.80;69.20
7254;DHT22;4060;49.186;9.226;2022-12-07T01:37:51;8.80;69.20
7254;DHT22;4060;49.186;9.226;2022-12-07T01:40:20;8.80;69.30
7254;DHT22;4060;49.186;9.226;2022-12-07T01:42:49;8.80;69.20
7254;DHT22;4060;49.186;9.226;2022-12-07T01:45:43;8.80;69.30
7254;DHT22;4060;49.186;9.226;2022-12-07T01:48:16;8.80;69.30
7254;DHT22;4060;49.186;9.226;2022-12-07T01:50:50;8.80;69.30
7254;DHT22;4060;49.186;9.226;2022-12-07T01:53:22;8.80;69.30
7254;DHT22;4060;49.186;9.226;2022-12-07T01:55:55;8.80;69.30
7254;DHT22;4060;49.186;9.226;2022-12-07T01:58:25;8.70;69.30
7254;DHT22;4060;49.186;9.226;2022-12-07T02:00:55;8.70;69.30
7254;DHT22;4060;49.186;9.226;2022-12-07T02:03:29;8.70;69.30
7254;DHT22;4060;49.186;9.226;2022-12-07T02:06:03;8.80;69.40
7254;DHT22;4060;49.186;9.226;2022-12-07T02:08:33;8.70;69.30
7254;DHT22;4060;49.186;9.226;2022-12-07T02:11:04;8.70;69.30
7254;DHT22;4060;49.186;9.226;2022-12-07T02:13:36;8.70;69.30
7254;DHT22;4060;49.186;9.226;2022-12-07T02:16:29;8.70;69.40
7254;DHT22;4060;49.186;9.226;2022-12-07T02:19:29;8.70;69.40
7254;DHT22;4060;49.186;9.226;2022-12-07T02:22:18;8.70;69.30
7254;DHT22;4060;49.186;9.226;2022-12-07T02:24:55;8.70;69.40
7254;DHT22;4060;49.186;9.226;2022-12-07T02:27:43;8.70;69.40
7254;DHT22;4060;49.186;9.226;2022-12-07T02:30:19;8.70;69.40
7254;DHT22;4060;49.186;9.226;2022-12-07T02:32:56;8.70;69.40
7254;DHT22;4060;49.186;9.226;2022-12-07T02:35:32;8.70;69.40
7254;DHT22;4060;49.186;9.226;2022-12-07T02:38:07;8.70;69.50
7254;DHT22;4060;49.186;9.226;2022-12-07T02:40:43;8.70;69.50
7254;DHT22;4060;49.186;9.226;2022-12-07T02:43:19;8.70;69.50
7254;DHT22;4060;49.186;9.226;2022-12-07T02:45:55;8.70;69.50
7254;DHT22;4060;49.186;9.226;2022-12-07T02:48:27;8.70;69.60
7254;DHT22;4060;49.186;9.226;2022-12-07T02:50:56;8.60;70.30
7254;DHT22;4060;49.186;9.226;2022-12-07T02:53:34;8.60;69.50
7254;DHT22;4060;49.186;9.226;2022-12-07T02:56:07;8.60;69.50
7254;DHT22;4060;49.186;9.226;2022-12-07T02:58:48;8.60;69.50
7254;DHT22;4060;49.186;9.226;2022-12-07T03:01:31;8.60;69.50
7254;DHT22;4060;49.186;9.226;2022-12-07T03:04:14;8.60;69.70
7254;DHT22;4060;49.186;9.226;2022-12-07T03:06:56;8.60;69.60
7254;DHT22;4060;49.186;9.226;2022-12-07T03:09:31;8.60;69.60
7254;DHT22;4060;49.186;9.226;2022-12-07T03:12:10;8.60;69.60
7254;DHT22;4060;49.186;9.226;2022-12-07T03:14:47;8.60;69.70
7254;DHT22;4060;49.186;9.226;2022-12-07T03:17:24;8.60;69.70
7254;DHT22;4060;49.186;9.226;2022-12-07T03:19:58;8.60;69.70
7254;DHT22;4060;49.186;9.226;2022-12-07T03:22:31;8.60;69.70
7254;DHT22;4060;49.186;9.226;2022-12-07T03:25:07;8.60;69.70
7254;DHT22;4060;49.186;9.226;2022-12-07T03:27:41;8.60;69.80
7254;DHT22;4060;49.186;9.226;2022-12-07T03:30:14;8.60;69.80
7254;DHT22;4060;49.186;9.226;2022-12-07T03:32:50;8.60;69.80
7254;DHT22;4060;49.186;9.226;2022-12-07T03:35:25;8.60;69.80
7254;DHT22;4060;49.186;9.226;2022-12-07T03:38:01;8.60;69.80
7254;DHT22;4060;49.186;9.226;2022-12-07T03:40:37;8.60;69.80
7254;DHT22;4060;49.186;9.226;2022-12-07T03:43:09;8.60;69.80
7254;DHT22;4060;49.186;9.226;2022-12-07T03:45:40;8.60;69.80
7254;DHT22;4060;49.186;9.226;2022-12-07T03:48:18;8.50;69.70
7254;DHT22;4060;49.186;9.226;2022-12-07T03:50:55;8.50;69.70
7254;DHT22;4060;49.186;9.226;2022-12-07T03:53:29;8.50;69.80
7254;DHT22;4060;49.186;9.226;2022-12-07T03:56:02;8.50;69.80
7254;DHT22;4060;49.186;9.226;2022-12-07T03:58:32;8.50;69.80
7254;DHT22;4060;49.186;9.226;2022-12-07T04:01:03;8.50;69.80
7254;DHT22;4060;49.186;9.226;2022-12-07T04:03:41;8.50;69.80
7254;DHT22;4060;49.186;9.226;2022-12-07T04:06:11;8.50;69.80
7254;DHT22;4060;49.186;9.226;2022-12-07T04:08:40;8.50;69.80
7254;DHT22;4060;49.186;9.226;2022-12-07T04:11:10;8.50;69.90
7254;DHT22;4060;49.186;9.226;2022-12-07T04:13:39;8.50;69.90
7254;DHT22;4060;49.186;9.226;2022-12-07T04:16:28;8.50;69.90
7254;DHT22;4060;49.186;9.226;2022-12-07T04:18:59;8.50;69.90
7254;DHT22;4060;49.186;9.226;2022-12-07T04:21:28;8.50;70.00
7254;DHT22;4060;49.186;9.226;2022-12-07T04:23:57;8.50;69.90
7254;DHT22;4060;49.186;9.226;2022-12-07T04:26:27;8.50;70.00
7254;DHT22;4060;49.186;9.226;2022-12-07T04:28:56;8.50;70.00
7254;DHT22;4060;49.186;9.226;2022-12-07T04:31:26;8.50;70.00
7254;DHT22;4060;49.186;9.226;2022-12-07T04:33:59;8.50;70.10
7254;DHT22;4060;49.186;9.226;2022-12-07T04:36:28;8.50;70.00
7254;DHT22;4060;49.186;9.226;2022-12-07T04:38:57;8.50;70.00
7254;DHT22;4060;49.186;9.226;2022-12-07T04:41:26;8.50;70.10
7254;DHT22;4060;49.186;9.226;2022-12-07T04:43:57;8.50;70.10
7254;DHT22;4060;49.186;9.226;2022-12-07T04:46:28;8.50;70.10
7254;DHT22;4060;49.186;9.226;2022-12-07T04:49:00;8.50;70.10
7254;DHT22;4060;49.186;9.226;2022-12-07T04:51:30;8.50;70.10
7254;DHT22;4060;49.186;9.226;2022-12-07T04:53:59;8.50;70.10
7254;DHT22;4060;49.186;9.226;2022-12-07T04:56:29;8.50;70.10
7254;DHT22;4060;49.186;9.226;2022-12-07T04:58:59;8.50;70.10
7254;DHT22;4060;49.186;9.226;2022-12-07T05:01:28;8.50;70.10
7254;DHT22;4060;49.186;9.226;2022-12-07T05:04:01;8.50;70.10
7254;DHT22;4060;49.186;9.226;2022-12-07T05:06:31;8.50;70.10
7254;DHT22;4060;49.186;9.226;2022-12-07T05:09:01;8.50;70.10
7254;DHT22;4060;49.186;9.226;2022-12-07T05:11:31;8.40;70.00
7254;DHT22;4060;49.186;9.226;2022-12-07T05:14:13;8.40;70.00
7254;DHT22;4060;49.186;9.226;2022-12-07T05:16:43;8.50;70.20
7254;DHT22;4060;49.186;9.226;2022-12-07T05:19:15;8.40;70.10
7254;DHT22;4060;49.186;9.226;2022-12-07T05:21:45;8.40;70.10
7254;DHT22;4060;49.186;9.226;2022-12-07T05:24:15;8.40;70.10
7254;DHT22;4060;49.186;9.226;2022-12-07T05:26:45;8.40;70.10
7254;DHT22;4060;49.186;9.226;2022-12-07T05:29:16;8.40;70.10
7254;DHT22;4060;49.186;9.226;2022-12-07T05:31:46;8.40;70.10
7254;DHT22;4060;49.186;9.226;2022-12-07T05:34:17;8.40;70.10
7254;DHT22;4060;49.186;9.226;2022-12-07T05:36:46;8.40;70.10
7254;DHT22;4060;49.186;9.226;2022-12-07T05:39:19;8.40;70.10
7254;DHT22;4060;49.186;9.226;2022-12-07T05:41:49;8.40;70.10
7254;DHT22;4060;49.186;9.226;2022-12-07T05:44:35;8.40;70.10
7254;DHT22;4060;49.186;9.226;2022-12-07T05:47:04;8.40;70.10
7254;DHT22;4060;49.186;9.226;2022-12-07T05:49:35;8.40;70.20
7254;DHT22;4060;49.186;9.226;2022-12-07T05:52:05;8.40;70.10
7254;DHT22;4060;49.186;9.226;2022-12-07T05:54:34;8.40;70.10
7254;DHT22;4060;49.186;9.226;2022-12-07T05:57:04;8.40;70.20
7254;DHT22;4060;49.186;9.226;2022-12-07T05:59:33;8.40;70.10
7254;DHT22;4060;49.186;9.226;2022-12-07T06:02:03;8.40;70.10
7254;DHT22;4060;49.186;9.226;2022-12-07T06:04:37;8.40;70.10
7254;DHT22;4060;49.186;9.226;2022-12-07T06:07:10;8.40;70.10
7254;DHT22;4060;49.186;9.226;2022-12-07T06:09:40;8.40;70.20
7254;DHT22;4060;49.186;9.226;2022-12-07T06:12:11;8.40;70.20
7254;DHT22;4060;49.186;9.226;2022-12-07T06:14:57;8.40;70.20
7254;DHT22;4060;49.186;9.226;2022-12-07T06:17:26;8.40;70.20
7254;DHT22;4060;49.186;9.226;2022-12-07T06:19:57;8.40;70.20
7254;DHT22;4060;49.186;9.226;2022-12-07T06:22:26;8.40;70.20
7254;DHT22;4060;49.186;9.226;2022-12-07T06:24:55;8.40;70.20
7254;DHT22;4060;49.186;9.226;2022-12-07T06:27:26;8.40;70.20
7254;DHT22;4060;49.186;9.226;2022-12-07T06:29:55;8.30;70.10
7254;DHT22;4060;49.186;9.226;2022-12-07T06:32:25;8.40;70.20
7254;DHT22;4060;49.186;9.226;2022-12-07T06:34:56;8.40;70.10
7254;DHT22;4060;49.186;9.226;2022-12-07T06:37:26;8.40;70.10
7254;DHT22;4060;49.186;9.226;2022-12-07T06:39:56;8.40;70.10
7254;DHT22;4060;49.186;9.226;2022-12-07T06:42:25;8.40;70.20
7254;DHT22;4060;49.186;9.226;2022-12-07T06:44:54;8.30;70.10
7254;DHT22;4060;49.186;9.226;2022-12-07T06:47:24;8.30;70.10
7254;DHT22;4060;49.186;9.226;2022-12-07T06:49:53;8.30;70.10
7254;DHT22;4060;49.186;9.226;2022-12-07T06:52:24;8.30;70.10
7254;DHT22;4060;49.186;9.226;2022-12-07T06:54:54;8.30;70.10
7254;DHT22;4060;49.186;9.226;2022-12-07T06:57:23;8.30;70.10
7254;DHT22;4060;49.186;9.226;2022-12-07T06:59:53;8.30;70.00
7254;DHT22;4060;49.186;9.226;2022-12-07T07:02:22;8.30;70.10
7254;DHT22;4060;49.186;9.226;2022-12-07T07:04:51;8.30;70.10
7254;DHT22;4060;49.186;9.226;2022-12-07T07:07:21;8.30;70.10
7254;DHT22;4060;49.186;9.226;2022-12-07T07:09:53;8.30;70.10
7254;DHT22;4060;49.186;9.226;2022-12-07T07:12:22;8.30;70.10
7254;DHT22;4060;49.186;9.226;2022-12-07T07:14:52;8.30;70.10
7254;DHT22;4060;49.186;9.226;2022-12-07T07:17:21;8.30;70.10
7254;DHT22;4060;49.186;9.226;2022-12-07T07:19:50;8.30;70.10
7254;DHT22;4060;49.186;9.226;2022-12-07T07:22:20;8.30;70.10
7254;DHT22;4060;49.186;9.226;2022-12-07T07:24:52;8.30;70.10
7254;DHT22;4060;49.186;9.226;2022-12-07T07:27:21;8.30;70.10
7254;DHT22;4060;49.186;9.226;2022-12-07T07:29:50;8.30;70.10
7254;DHT22;4060;49.186;9.226;2022-12-07T07:32:20;8.30;70.10
7254;DHT22;4060;49.186;9.226;2022-12-07T07:34:49;8.30;70.10
7254;DHT22;4060;49.186;9.226;2022-12-07T07:37:19;8.30;70.10
7254;DHT22;4060;49.186;9.226;2022-12-07T07:39:49;8.30;70.00
7254;DHT22;4060;49.186;9.226;2022-12-07T07:42:20;8.30;70.10
7254;DHT22;4060;49.186;9.226;2022-12-07T07:44:49;8.30;70.10
7254;DHT22;4060;49.186;9.226;2022-12-07T07:47:18;8.30;70.10
7254;DHT22;4060;49.186;9.226;2022-12-07T07:49:48;8.30;70.10
7254;DHT22;4060;49.186;9.226;2022-12-07T07:52:17;8.30;70.10
7254;DHT22;4060;49.186;9.226;2022-12-07T07:54:47;8.30;70.10
7254;DHT22;4060;49.186;9.226;2022-12-07T07:57:17;8.30;70.10
7254;DHT22;4060;49.186;9.226;2022-12-07T07:59:48;8.30;70.10
7254;DHT22;4060;49.186;9.226;2022-12-07T08:02:21;8.30;70.10
7254;DHT22;4060;49.186;9.226;2022-12-07T08:04:51;8.30;70.10
7254;DHT22;4060;49.186;9.226;2022-12-07T08:07:21;8.30;70.10
7254;DHT22;4060;49.186;9.226;2022-12-07T08:09:51;8.30;70.10
7254;DHT22;4060;49.186;9.226;2022-12-07T08:12:20;8.30;70.10
7254;DHT22;4060;49.186;9.226;2022-12-07T08:14:52;8.30;70.10
7254;DHT22;4060;49.186;9.226;2022-12-07T08:17:21;8.30;70.10
7254;DHT22;4060;49.186;9.226;2022-12-07T08:19:51;8.30;70.10
7254;DHT22;4060;49.186;9.226;2022-12-07T08:22:21;8.30;70.10
7254;DHT22;4060;49.186;9.226;2022-12-07T08:24:51;8.30;70.10
7254;DHT22;4060;49.186;9.226;2022-12-07T08:27:21;8.20;70.00
7254;DHT22;4060;49.186;9.226;2022-12-07T08:29:56;8.30;70.20
7254;DHT22;4060;49.186;9.226;2022-12-07T08:32:25;8.30;70.20
7254;DHT22;4060;49.186;9.226;2022-12-07T08:34:54;8.30;70.20
7254;DHT22;4060;49.186;9.226;2022-12-07T08:37:24;8.30;70.10
7254;DHT22;4060;49.186;9.226;2022-12-07T08:39:53;8.30;70.20
7254;DHT22;4060;49.186;9.226;2022-12-07T08:42:23;8.30;70.20
7254;DHT22;4060;49.186;9.226;2022-12-07T08:44:59;8.30;70.20
7254;DHT22;4060;49.186;9.226;2022-12-07T08:47:28;8.30;70.20
7254;DHT22;4060;49.186;9.226;2022-12-07T08:49:59;8.30;70.20
7254;DHT22;4060;49.186;9.226;2022-12-07T08:52:30;8.30;70.20
7254;DHT22;4060;49.186;9.226;2022-12-07T08:55:01;8.30;70.20
7254;DHT22;4060;49.186;9.226;2022-12-07T08:57:31;8.30;70.20
7254;DHT22;4060;49.186;9.226;2022-12-07T09:00:04;8.20;70.10
7254;DHT22;4060;49.186;9.226;2022-12-07T09:02:33;8.20;70.10
7254;DHT22;4060;49.186;9.226;2022-12-07T09:05:04;8.30;70.10
7254;DHT22;4060;49.186;9.226;2022-12-07T09:07:34;8.20;70.10
7254;DHT22;4060;49.186;9.226;2022-12-07T09:10:04;8.30;70.20
7254;DHT22;4060;49.186;9.226;2022-12-07T09:12:34;8.30;70.30
7254;DHT22;4060;49.186;9.226;2022-12-07T09:15:06;8.30;70.20
7254;DHT22;4060;49.186;9.226;2022-12-07T09:17:36;8.30;70.20
7254;DHT22;4060;49.186;9.226;2022-12-07T09:20:06;8.20;70.10
7254;DHT22;4060;49.186;9.226;2022-12-07T09:22:35;8.30;70.20
7254;DHT22;4060;49.186;9.226;2022-12-07T09:25:05;8.30;70.20
7254;DHT22;4060;49.186;9.226;2022-12-07T09:27:35;8.30;70.30
7254;DHT22;4060;49.186;9.226;2022-12-07T09:30:09;8.30;70.20
7254;DHT22;4060;49.186;9.226;2022-12-07T09:32:38;8.20;70.20
7254;DHT22;4060;49.186;9.226;2022-12-07T09:35:07;8.30;70.30
7254;DHT22;4060;49.186;9.226;2022-12-07T09:37:37;8.20;70.20
7254;DHT22;4060;49.186;9.226;2022-12-07T09:40:07;8.30;70.30
7254;DHT22;4060;49.186;9.226;2022-12-07T09:42:38;8.30;70.30
7254;DHT22;4060;49.186;9.226;2022-12-07T09:45:15;8.30;70.30
7254;DHT22;4060;49.186;9.226;2022-12-07T09:47:45;8.30;70.30
7254;DHT22;4060;49.186;9.226;2022-12-07T09:50:17;8.30;70.30
7254;DHT22;4060;49.186;9.226;2022-12-07T09:52:47;8.30;70.40
7254;DHT22;4060;49.186;9.226;2022-12-07T09:55:22;8.30;70.30
7254;DHT22;4060;49.186;9.226;2022-12-07T09:57:53;8.30;70.40
7254;DHT22;4060;49.186;9.226;2022-12-07T10:00:25;8.30;70.30
7254;DHT22;4060;49.186;9.226;2022-12-07T10:03:11;8.30;70.30
7254;DHT22;4060;49.186;9.226;2022-12-07T10:05:44;8.30;70.40
7254;DHT22;4060;49.186;9.226;2022-12-07T10:08:14;8.30;70.40
7254;DHT22;4060;49.186;9.226;2022-12-07T10:10:50;8.30;70.30
7254;DHT22;4060;49.186;9.226;2022-12-07T10:13:21;8.30;70.30
7254;DHT22;4060;49.186;9.226;2022-12-07T10:15:54;8.30;70.30
7254;DHT22;4060;49.186;9.226;2022-12-07T10:18:29;8.30;70.40
7254;DHT22;4060;49.186;9.226;2022-12-07T10:21:06;8.30;70.30
7254;DHT22;4060;49.186;9.226;2022-12-07T10:23:42;8.30;70.30
7254;DHT22;4060;49.186;9.226;2022-12-07T10:26:29;8.30;70.40
7254;DHT22;4060;49.186;9.226;2022-12-07T10:29:14;8.30;70.40
7254;DHT22;4060;49.186;9.226;2022-12-07T10:31:53;8.30;70.40
7254;DHT22;4060;49.186;9.226;2022-12-07T10:34:24;8.30;70.40
7254;DHT22;4060;49.186;9.226;2022-12-07T10:37:15;8.30;70.30
7254;DHT22;4060;49.186;9.226;2022-12-07T10:39:47;8.30;70.40
7254;DHT22;4060;49.186;9.226;2022-12-07T10:42:18;8.30;70.30
7254;DHT22;4060;49.186;9.226;2022-12-07T10:44:48;8.30;70.30
7254;DHT22;4060;49.186;9.226;2022-12-07T10:47:42;8.30;70.30
7254;DHT22;4060;49.186;9.226;2022-12-07T10:53:40;8.30;70.40
7254;DHT22;4060;49.186;9.226;2022-12-07T10:56:35;8.30;70.40
7254;DHT22;4060;49.186;9.226;2022-12-07T10:59:26;8.30;70.40
7254;DHT22;4060;49.186;9.226;2022-12-07T11:02:09;8.30;70.40
7254;DHT22;4060;49.186;9.226;2022-12-07T11:05:01;8.30;70.40
7254;DHT22;4060;49.186;9.226;2022-12-07T11:07:42;8.30;70.40
7254;DHT22;4060;49.186;9.226;2022-12-07T11:10:16;8.30;70.40
7254;DHT22;4060;49.186;9.226;2022-12-07T11:13:03;8.30;70.40
7254;DHT22;4060;49.186;9.226;2022-12-07T11:15:45;8.30;70.50
7254;DHT22;4060;49.186;9.226;2022-12-07T11:18:26;8.30;70.40
7254;DHT22;4060;49.186;9.226;2022-12-07T11:21:09;8.40;70.60
7254;DHT22;4060;49.186;9.226;2022-12-07T11:23:49;8.40;70.50
7254;DHT22;4060;49.186;9.226;2022-12-07T11:26:45;8.40;70.50
7254;DHT22;4060;49.186;9.226;2022-12-07T11:32:24;8.40;70.40
7254;DHT22;4060;49.186;9.226;2022-12-07T11:35:08;8.40;70.50
7254;DHT22;4060;49.186;9.226;2022-12-07T11:37:43;8.30;70.50
7254;DHT22;4060;49.186;9.226;2022-12-07T11:40:18;8.40;70.50
7254;DHT22;4060;49.186;9.226;2022-12-07T11:42:55;8.40;70.50
7254;DHT22;4060;49.186;9.226;2022-12-07T11:45:27;8.40;70.50
7254;DHT22;4060;49.186;9.226;2022-12-07T11:48:01;8.40;70.60
7254;DHT22;4060;49.186;9.226;2022-12-07T11:50:36;8.40;70.60
7254;DHT22;4060;49.186;9.226;2022-12-07T11:53:16;8.40;70.60
7254;DHT22;4060;49.186;9.226;2022-12-07T11:55:50;8.40;70.60
7254;DHT22;4060;49.186;9.226;2022-12-07T11:58:42;8.40;70.60
7254;DHT22;4060;49.186;9.226;2022-12-07T12:01:35;8.40;70.00
7254;DHT22;4060;49.186;9.226;2022-12-07T12:04:18;8.40;70.60
7254;DHT22;4060;49.186;9.226;2022-12-07T12:06:52;8.40;70.60
7254;DHT22;4060;49.186;9.226;2022-12-07T12:09:27;8.40;70.60
7254;DHT22;4060;49.186;9.226;2022-12-07T12:12:30;8.40;70.60
7254;DHT22;4060;49.186;9.226;2022-12-07T12:15:18;8.40;70.60
7254;DHT22;4060;49.186;9.226;2022-12-07T12:20:55;8.40;70.60
7254;DHT22;4060;49.186;9.226;2022-12-07T12:23:36;8.40;70.50
7254;DHT22;4060;49.186;9.226;2022-12-07T12:26:17;8.40;71.30
7254;DHT22;4060;49.186;9.226;2022-12-07T12:28:54;8.40;70.50
7254;DHT22;4060;49.186;9.226;2022-12-07T12:31:37;8.40;70.50
7254;DHT22;4060;49.186;9.226;2022-12-07T12:34:38;8.40;70.50
7254;DHT22;4060;49.186;9.226;2022-12-07T12:37:40;8.40;70.60
7254;DHT22;4060;49.186;9.226;2022-12-07T12:40:42;8.50;70.60
7254;DHT22;4060;49.186;9.226;2022-12-07T12:43:43;8.50;70.60
7254;DHT22;4060;49.186;9.226;2022-12-07T12:49:35;8.50;70.70
7254;DHT22;4060;49.186;9.226;2022-12-07T12:55:20;8.50;70.70
7254;DHT22;4060;49.186;9.226;2022-12-07T13:03:57;8.50;70.70
7254;DHT22;4060;49.186;9.226;2022-12-07T13:06:37;8.50;70.70
7254;DHT22;4060;49.186;9.226;2022-12-07T13:09:20;8.50;70.70
7254;DHT22;4060;49.186;9.226;2022-12-07T13:11:58;8.50;70.70
7254;DHT22;4060;49.186;9.226;2022-12-07T13:14:55;8.50;70.60
7254;DHT22;4060;49.186;9.226;2022-12-07T13:17:57;8.50;70.70
7254;DHT22;4060;49.186;9.226;2022-12-07T13:20:53;8.50;70.70
7254;DHT22;4060;49.186;9.226;2022-12-07T13:23:30;8.50;70.60
7254;DHT22;4060;49.186;9.226;2022-12-07T13:26:15;8.50;70.60
7254;DHT22;4060;49.186;9.226;2022-12-07T13:28:47;8.50;70.70
7254;DHT22;4060;49.186;9.226;2022-12-07T13:31:32;8.50;70.60
7254;DHT22;4060;49.186;9.226;2022-12-07T13:34:03;8.50;70.70
7254;DHT22;4060;49.186;9.226;2022-12-07T13:36:38;8.50;70.70
7254;DHT22;4060;49.186;9.226;2022-12-07T13:39:18;8.50;70.60
7254;DHT22;4060;49.186;9.226;2022-12-07T13:41:53;8.60;70.70
7254;DHT22;4060;49.186;9.226;2022-12-07T13:44:24;8.60;70.70
7254;DHT22;4060;49.186;9.226;2022-12-07T13:47:04;8.60;70.70
7254;DHT22;4060;49.186;9.226;2022-12-07T13:49:44;8.60;70.70
7254;DHT22;4060;49.186;9.226;2022-12-07T13:52:23;8.60;70.70
7254;DHT22;4060;49.186;9.226;2022-12-07T13:54:59;8.60;70.70
7254;DHT22;4060;49.186;9.226;2022-12-07T13:57:30;8.60;70.70
7254;DHT22;4060;49.186;9.226;2022-12-07T14:00:02;8.60;70.70
7254;DHT22;4060;49.186;9.226;2022-12-07T14:02:55;8.60;70.70
7254;DHT22;4060;49.186;9.226;2022-12-07T14:05:40;8.60;70.60
7254;DHT22;4060;49.186;9.226;2022-12-07T14:08:24;8.60;70.70
7254;DHT22;4060;49.186;9.226;2022-12-07T14:10:55;8.60;70.60
7254;DHT22;4060;49.186;9.226;2022-12-07T14:13:30;8.60;70.60
7254;DHT22;4060;49.186;9.226;2022-12-07T14:16:01;8.60;70.60
7254;DHT22;4060;49.186;9.226;2022-12-07T14:18:38;8.60;70.60
7254;DHT22;4060;49.186;9.226;2022-12-07T14:21:17;8.60;70.70
7254;DHT22;4060;49.186;9.226;2022-12-07T14:26:52;8.60;70.60
7254;DHT22;4060;49.186;9.226;2022-12-07T14:29:33;8.60;70.60
7254;DHT22;4060;49.186;9.226;2022-12-07T14:32:23;8.60;70.60
7254;DHT22;4060;49.186;9.226;2022-12-07T14:35:00;8.60;70.50
7254;DHT22;4060;49.186;9.226;2022-12-07T14:37:30;8.60;70.90
7254;DHT22;4060;49.186;9.226;2022-12-07T14:40:02;8.60;70.60
7254;DHT22;4060;49.186;9.226;2022-12-07T14:42:32;8.60;70.50
7254;DHT22;4060;49.186;9.226;2022-12-07T14:45:02;8.60;70.50
7254;DHT22;4060;49.186;9.226;2022-12-07T14:47:31;8.60;70.50
7254;DHT22;4060;49.186;9.226;2022-12-07T14:50:01;8.60;70.40
7254;DHT22;4060;49.186;9.226;2022-12-07T14:52:30;8.60;70.40
7254;DHT22;4060;49.186;9.226;2022-12-07T14:55:02;8.60;70.40
7254;DHT22;4060;49.186;9.226;2022-12-07T14:57:31;8.60;70.40
7254;DHT22;4060;49.186;9.226;2022-12-07T15:00:02;8.60;70.50
7254;DHT22;4060;49.186;9.226;2022-12-07T15:02:31;8.60;70.40
7254;DHT22;4060;49.186;9.226;2022-12-07T15:05:01;8.60;70.40
7254;DHT22;4060;49.186;9.226;2022-12-07T15:07:30;8.60;70.40
7254;DHT22;4060;49.186;9.226;2022-12-07T15:10:03;8.60;70.40
7254;DHT22;4060;49.186;9.226;2022-12-07T15:12:33;8.60;70.40
7254;DHT22;4060;49.186;9.226;2022-12-07T15:15:02;8.60;70.40
7254;DHT22;4060;49.186;9.226;2022-12-07T15:17:32;8.60;70.30
7254;DHT22;4060;49.186;9.226;2022-12-07T15:20:01;8.60;70.40
7254;DHT22;4060;49.186;9.226;2022-12-07T15:22:31;8.60;70.40
7254;DHT22;4060;49.186;9.226;2022-12-07T15:25:03;8.60;70.30
7254;DHT22;4060;49.186;9.226;2022-12-07T15:27:33;8.60;70.30
7254;DHT22;4060;49.186;9.226;2022-12-07T15:30:04;8.60;70.30
7254;DHT22;4060;49.186;9.226;2022-12-07T15:32:33;8.60;70.30
7254;DHT22;4060;49.186;9.226;2022-12-07T15:35:03;8.60;70.40
7254;DHT22;4060;49.186;9.226;2022-12-07T15:37:33;8.60;70.30
7254;DHT22;4060;49.186;9.226;2022-12-07T15:40:06;8.60;70.30
7254;DHT22;4060;49.186;9.226;2022-12-07T15:42:37;8.60;70.20
7254;DHT22;4060;49.186;9.226;2022-12-07T15:45:07;8.60;70.30
7254;DHT22;4060;49.186;9.226;2022-12-07T15:47:37;8.60;70.30
7254;DHT22;4060;49.186;9.226;2022-12-07T15:50:11;8.60;70.30
7254;DHT22;4060;49.186;9.226;2022-12-07T15:52:40;8.60;70.30
7254;DHT22;4060;49.186;9.226;2022-12-07T15:55:11;8.60;70.30
7254;DHT22;4060;49.186;9.226;2022-12-07T15:57:41;8.60;70.20
7254;DHT22;4060;49.186;9.226;2022-12-07T16:00:11;8.60;70.30
7254;DHT22;4060;49.186;9.226;2022-12-07T16:02:41;8.60;70.20
7254;DHT22;4060;49.186;9.226;2022-12-07T16:05:11;8.60;70.20
7254;DHT22;4060;49.186;9.226;2022-12-07T16:07:41;8.60;70.20
7254;DHT22;4060;49.186;9.226;2022-12-07T16:10:16;8.60;70.30
7254;DHT22;4060;49.186;9.226;2022-12-07T16:12:45;8.60;70.20
7254;DHT22;4060;49.186;9.226;2022-12-07T16:15:15;8.60;70.20
7254;DHT22;4060;49.186;9.226;2022-12-07T16:17:44;8.60;70.20
7254;DHT22;4060;49.186;9.226;2022-12-07T16:20:14;8.60;70.20
7254;DHT22;4060;49.186;9.226;2022-12-07T16:22:43;8.60;70.30
7254;DHT22;4060;49.186;9.226;2022-12-07T16:25:16;8.60;70.20
7254;DHT22;4060;49.186;9.226;2022-12-07T16:27:45;8.60;70.20
7254;DHT22;4060;49.186;9.226;2022-12-07T16:30:15;8.60;70.20
7254;DHT22;4060;49.186;9.226;2022-12-07T16:32:45;8.60;70.20
7254;DHT22;4060;49.186;9.226;2022-12-07T16:35:14;8.50;70.10
7254;DHT22;4060;49.186;9.226;2022-12-07T16:37:44;8.60;70.10
7254;DHT22;4060;49.186;9.226;2022-12-07T16:40:16;8.60;70.20
7254;DHT22;4060;49.186;9.226;2022-12-07T16:42:45;8.60;70.20
7254;DHT22;4060;49.186;9.226;2022-12-07T16:45:17;8.50;70.10
7254;DHT22;4060;49.186;9.226;2022-12-07T16:47:46;8.60;70.10
7254;DHT22;4060;49.186;9.226;2022-12-07T16:50:23;8.60;70.10
7254;DHT22;4060;49.186;9.226;2022-12-07T16:52:53;8.60;70.10
7254;DHT22;4060;49.186;9.226;2022-12-07T16:55:25;8.60;70.10
7254;DHT22;4060;49.186;9.226;2022-12-07T16:57:55;8.50;70.00
7254;DHT22;4060;49.186;9.226;2022-12-07T17:00:24;8.60;70.00
7254;DHT22;4060;49.186;9.226;2022-12-07T17:02:54;8.50;69.90
7254;DHT22;4060;49.186;9.226;2022-12-07T17:05:25;8.50;70.00
7254;DHT22;4060;49.186;9.226;2022-12-07T17:07:57;8.50;70.00
7254;DHT22;4060;49.186;9.226;2022-12-07T17:10:29;8.50;69.90
7254;DHT22;4060;49.186;9.226;2022-12-07T17:12:59;8.60;70.00
7254;DHT22;4060;49.186;9.226;2022-12-07T17:15:29;8.50;69.90
7254;DHT22;4060;49.186;9.226;2022-12-07T17:17:58;8.50;69.90
7254;DHT22;4060;49.186;9.226;2022-12-07T17:20:28;8.50;69.90
7254;DHT22;4060;49.186;9.226;2022-12-07T17:22:58;8.50;69.90